sensor_id;sensor_type;location;lat;lon;timestamp;pressure;altitude;pressure_sealevel;temperature
74750;BMP280;63269;53.330;-6.288;2023-06-10T00:00:44;101170.56;;;23.42
74750;BMP280;63269;53.330;-6.288;2023-06-10T00:03:10;101166.66;;;23.43
74750;BMP280;63269;53.330;-6.288;2023-06-10T00:05:36;101164.00;;;23.43
74750;BMP280;63269;53.330;-6.288;2023-06-10T00:08:04;101169.34;;;23.43
74750;BMP280;63269;53.330;-6.288;2023-06-10T00:10:36;101162.53;;;23.42
74750;BMP280;63269;53.330;-6.288;2023-06-10T00:13:05;101167.88;;;23.42
74750;BMP280;63269;53.330;-6.288;2023-06-10T00:15:34;101160.28;;;23.40
74750;BMP280;63269;53.330;-6.288;2023-06-10T00:18:01;101162.97;;;23.40
74750;BMP280;63269;53.330;-6.288;2023-06-10T00:20:27;101160.69;;;23.39
74750;BMP280;63269;53.330;-6.288;2023-06-10T00:22:53;101169.50;;;23.39
74750;BMP280;63269;53.330;-6.288;2023-06-10T00:25:18;101171.13;;;23.37
74750;BMP280;63269;53.330;-6.288;2023-06-10T00:27:44;101168.44;;;23.37
74750;BMP280;63269;53.330;-6.288;2023-06-10T00:30:10;101168.16;;;23.35
74750;BMP280;63269;53.330;-6.288;2023-06-10T00:32:36;101178.09;;;23.34
74750;BMP280;63269;53.330;-6.288;2023-06-10T00:35:05;101165.91;;;23.33
74750;BMP280;63269;53.330;-6.288;2023-06-10T00:37:32;101162.47;;;23.33
74750;BMP280;63269;53.330;-6.288;2023-06-10T00:40:00;101171.69;;;23.32
74750;BMP280;63269;53.330;-6.288;2023-06-10T00:42:25;101154.16;;;23.31
74750;BMP280;63269;53.330;-6.288;2023-06-10T00:44:51;101158.75;;;23.30
74750;BMP280;63269;53.330;-6.288;2023-06-10T00:47:17;101161.44;;;23.30
74750;BMP280;63269;53.330;-6.288;2023-06-10T00:49:43;101156.50;;;23.28
74750;BMP280;63269;53.330;-6.288;2023-06-10T00:52:09;101151.94;;;23.29
74750;BMP280;63269;53.330;-6.288;2023-06-10T00:54:36;101150.88;;;23.26
74750;BMP280;63269;53.330;-6.288;2023-06-10T00:57:02;101150.88;;;23.26
74750;BMP280;63269;53.330;-6.288;2023-06-10T00:59:31;101153.56;;;23.26
74750;BMP280;63269;53.330;-6.288;2023-06-10T01:01:57;101142.50;;;23.24
74750;BMP280;63269;53.330;-6.288;2023-06-10T01:04:23;101151.78;;;23.23
74750;BMP280;63269;53.330;-6.288;2023-06-10T01:06:57;101149.81;;;23.24
74750;BMP280;63269;53.330;-6.288;2023-06-10T01:12:34;101143.41;;;23.21
74750;BMP280;63269;53.330;-6.288;2023-06-10T01:15:04;101141.16;;;23.20
74750;BMP280;63269;53.330;-6.288;2023-06-10T01:17:29;101139.69;;;23.19
74750;BMP280;63269;53.330;-6.288;2023-06-10T01:19:56;101145.81;;;23.19
74750;BMP280;63269;53.330;-6.288;2023-06-10T01:22:24;101145.81;;;23.19
74750;BMP280;63269;53.330;-6.288;2023-06-10T01:24:51;101146.22;;;23.18
74750;BMP280;63269;53.330;-6.288;2023-06-10T01:27:19;101138.19;;;23.18
74750;BMP280;63269;53.330;-6.288;2023-06-10T01:29:50;101143.56;;;23.18
74750;BMP280;63269;53.330;-6.288;2023-06-10T01:32:50;101134.03;;;23.17
74750;BMP280;63269;53.330;-6.288;2023-06-10T01:35:14;101131.81;;;23.15
74750;BMP280;63269;53.330;-6.288;2023-06-10T01:37:43;101126.44;;;23.15
74750;BMP280;63269;53.330;-6.288;2023-06-10T01:40:11;101125.69;;;23.15
74750;BMP280;63269;53.330;-6.288;2023-06-10T01:42:37;101129.13;;;23.15
74750;BMP280;63269;53.330;-6.288;2023-06-10T01:45:03;101123.44;;;23.13
74750;BMP280;63269;53.330;-6.288;2023-06-10T01:47:28;101130.31;;;23.14
74750;BMP280;63269;53.330;-6.288;2023-06-10T01:49:54;101126.13;;;23.13
74750;BMP280;63269;53.330;-6.288;2023-06-10T01:52:20;101117.34;;;23.13
74750;BMP280;63269;53.330;-6.288;2023-06-10T01:54:45;101113.19;;;23.12
74750;BMP280;63269;53.330;-6.288;2023-06-10T01:57:10;101111.25;;;23.12
74750;BMP280;63269;53.330;-6.288;2023-06-10T01:59:36;101114.38;;;23.11
74750;BMP280;63269;53.330;-6.288;2023-06-10T02:02:04;101117.81;;;23.11
74750;BMP280;63269;53.330;-6.288;2023-06-10T02:04:29;101127.78;;;23.11
74750;BMP280;63269;53.330;-6.288;2023-06-10T02:06:55;101116.31;;;23.10
74750;BMP280;63269;53.330;-6.288;2023-06-10T02:09:21;101127.78;;;23.11
74750;BMP280;63269;53.330;-6.288;2023-06-10T02:11:48;101125.09;;;23.11
74750;BMP280;63269;53.330;-6.288;2023-06-10T02:14:14;101127.00;;;23.10
74750;BMP280;63269;53.330;-6.288;2023-06-10T02:16:39;101117.47;;;23.09
74750;BMP280;63269;53.330;-6.288;2023-06-10T02:19:05;101118.25;;;23.10
74750;BMP280;63269;53.330;-6.288;2023-06-10T02:21:32;101115.56;;;23.10
74750;BMP280;63269;53.330;-6.288;2023-06-10T02:23:59;101117.47;;;23.09
74750;BMP280;63269;53.330;-6.288;2023-06-10T02:26:25;101112.56;;;23.08
74750;BMP280;63269;53.330;-6.288;2023-06-10T02:28:51;101108.00;;;23.08
74750;BMP280;63269;53.330;-6.288;2023-06-10T02:34:38;101104.25;;;23.05
74750;BMP280;63269;53.330;-6.288;2023-06-10T02:37:04;101102.31;;;23.06
74750;BMP280;63269;53.330;-6.288;2023-06-10T02:39:29;101102.75;;;23.04
74750;BMP280;63269;53.330;-6.288;2023-06-10T02:41:55;101104.25;;;23.05
74750;BMP280;63269;53.330;-6.288;2023-06-10T02:44:20;101106.91;;;23.05
74750;BMP280;63269;53.330;-6.288;2023-06-10T02:46:46;101106.19;;;23.05
74750;BMP280;63269;53.330;-6.288;2023-06-10T02:49:12;101111.53;;;23.05
74750;BMP280;63269;53.330;-6.288;2023-06-10T02:51:38;101111.53;;;23.05
74750;BMP280;63269;53.330;-6.288;2023-06-10T02:54:04;101116.88;;;23.05
74750;BMP280;63269;53.330;-6.288;2023-06-10T02:56:30;101114.22;;;23.05
74750;BMP280;63269;53.330;-6.288;2023-06-10T02:58:57;101116.56;;;23.03
74750;BMP280;63269;53.330;-6.288;2023-06-10T03:04:44;101111.66;;;23.01
74750;BMP280;63269;53.330;-6.288;2023-06-10T03:07:10;101107.50;;;23.00
74750;BMP280;63269;53.330;-6.288;2023-06-10T03:09:36;101114.34;;;23.01
74750;BMP280;63269;53.330;-6.288;2023-06-10T03:12:02;101120.41;;;23.02
74750;BMP280;63269;53.330;-6.288;2023-06-10T03:14:27;101111.66;;;23.01
74750;BMP280;63269;53.330;-6.288;2023-06-10T03:16:53;101115.84;;;23.02
74750;BMP280;63269;53.330;-6.288;2023-06-10T03:19:18;101109.72;;;23.02
74750;BMP280;63269;53.330;-6.288;2023-06-10T03:21:49;101111.66;;;23.01
74750;BMP280;63269;53.330;-6.288;2023-06-10T03:24:15;101113.59;;;23.01
74750;BMP280;63269;53.330;-6.288;2023-06-10T03:26:41;101104.09;;;23.00
74750;BMP280;63269;53.330;-6.288;2023-06-10T03:29:07;101104.09;;;23.00
74750;BMP280;63269;53.330;-6.288;2023-06-10T03:31:32;101110.19;;;23.00
74750;BMP280;63269;53.330;-6.288;2023-06-10T03:33:58;101106.03;;;22.99
74750;BMP280;63269;53.330;-6.288;2023-06-10T03:36:23;101110.59;;;22.99
74750;BMP280;63269;53.330;-6.288;2023-06-10T03:38:49;101108.69;;;22.99
74750;BMP280;63269;53.330;-6.288;2023-06-10T03:41:17;101108.25;;;23.01
74750;BMP280;63269;53.330;-6.288;2023-06-10T03:43:42;101110.59;;;22.99
74750;BMP280;63269;53.330;-6.288;2023-06-10T03:46:09;101104.53;;;22.98
74750;BMP280;63269;53.330;-6.288;2023-06-10T03:48:35;101105.69;;;22.97
74750;BMP280;63269;53.330;-6.288;2023-06-10T03:51:01;101114.44;;;22.98
74750;BMP280;63269;53.330;-6.288;2023-06-10T03:53:27;101116.84;;;22.96
74750;BMP280;63269;53.330;-6.288;2023-06-10T03:55:52;101114.44;;;22.98
74750;BMP280;63269;53.330;-6.288;2023-06-10T03:58:17;101119.81;;;22.98
74750;BMP280;63269;53.330;-6.288;2023-06-10T04:00:43;101111.03;;;22.97
74750;BMP280;63269;53.330;-6.288;2023-06-10T04:03:10;101106.44;;;22.98
74750;BMP280;63269;53.330;-6.288;2023-06-10T04:05:40;101098.13;;;22.96
74750;BMP280;63269;53.330;-6.288;2023-06-10T04:08:07;101087.41;;;22.96
74750;BMP280;63269;53.330;-6.288;2023-06-10T04:10:32;101100.34;;;22.97
74750;BMP280;63269;53.330;-6.288;2023-06-10T04:12:58;101098.13;;;22.96
74750;BMP280;63269;53.330;-6.288;2023-06-10T04:15:24;101101.06;;;22.98
74750;BMP280;63269;53.330;-6.288;2023-06-10T04:21:12;101094.38;;;22.93
74750;BMP280;63269;53.330;-6.288;2023-06-10T04:23:37;101087.84;;;22.94
74750;BMP280;63269;53.330;-6.288;2023-06-10T04:26:03;101093.19;;;22.94
74750;BMP280;63269;53.330;-6.288;2023-06-10T04:28:30;101089.34;;;22.95
74750;BMP280;63269;53.330;-6.288;2023-06-10T04:30:56;101081.34;;;22.95
74750;BMP280;63269;53.330;-6.288;2023-06-10T04:33:21;101089.78;;;22.94
74750;BMP280;63269;53.330;-6.288;2023-06-10T04:35:47;101093.19;;;22.94
74750;BMP280;63269;53.330;-6.288;2023-06-10T04:38:13;101095.88;;;22.94
74750;BMP280;63269;53.330;-6.288;2023-06-10T04:40:39;101095.13;;;22.94
74750;BMP280;63269;53.330;-6.288;2023-06-10T04:43:04;101094.38;;;22.93
74750;BMP280;63269;53.330;-6.288;2023-06-10T04:45:29;101101.22;;;22.94
74750;BMP280;63269;53.330;-6.288;2023-06-10T04:47:56;101097.81;;;22.94
74750;BMP280;63269;53.330;-6.288;2023-06-10T04:50:23;101097.81;;;22.94
74750;BMP280;63269;53.330;-6.288;2023-06-10T04:52:48;101099.00;;;22.93
74750;BMP280;63269;53.330;-6.288;2023-06-10T04:55:15;101097.81;;;22.94
74750;BMP280;63269;53.330;-6.288;2023-06-10T04:57:41;101092.47;;;22.94
74750;BMP280;63269;53.330;-6.288;2023-06-10T05:00:07;101097.03;;;22.93
74750;BMP280;63269;53.330;-6.288;2023-06-10T05:02:33;101094.38;;;22.93
74750;BMP280;63269;53.330;-6.288;2023-06-10T05:04:59;101097.03;;;22.93
74750;BMP280;63269;53.330;-6.288;2023-06-10T05:07:24;101093.66;;;22.93
74750;BMP280;63269;53.330;-6.288;2023-06-10T05:09:49;101103.59;;;22.92
74750;BMP280;63269;53.330;-6.288;2023-06-10T05:12:15;101109.72;;;22.93
74750;BMP280;63269;53.330;-6.288;2023-06-10T05:14:41;101101.69;;;22.93
74750;BMP280;63269;53.330;-6.288;2023-06-10T05:17:06;101105.84;;;22.94
74750;BMP280;63269;53.330;-6.288;2023-06-10T05:19:32;101095.56;;;22.92
74750;BMP280;63269;53.330;-6.288;2023-06-10T05:21:57;101099.44;;;22.91
74750;BMP280;63269;53.330;-6.288;2023-06-10T05:24:23;101105.53;;;22.92
74750;BMP280;63269;53.330;-6.288;2023-06-10T05:26:48;101095.56;;;22.92
74750;BMP280;63269;53.330;-6.288;2023-06-10T05:29:14;101097.03;;;22.93
74750;BMP280;63269;53.330;-6.288;2023-06-10T05:31:41;101099.00;;;22.93
74750;BMP280;63269;53.330;-6.288;2023-06-10T05:34:06;101105.06;;;22.93
74750;BMP280;63269;53.330;-6.288;2023-06-10T05:36:32;101101.22;;;22.94
74750;BMP280;63269;53.330;-6.288;2023-06-10T05:38:57;101097.81;;;22.94
74750;BMP280;63269;53.330;-6.288;2023-06-10T05:41:23;101097.03;;;22.93
74750;BMP280;63269;53.330;-6.288;2023-06-10T05:43:48;101099.28;;;22.95
74750;BMP280;63269;53.330;-6.288;2023-06-10T05:46:14;101098.25;;;22.92
74750;BMP280;63269;53.330;-6.288;2023-06-10T05:48:39;101102.41;;;22.93
74750;BMP280;63269;53.330;-6.288;2023-06-10T05:51:05;101104.63;;;22.95
74750;BMP280;63269;53.330;-6.288;2023-06-10T05:53:32;101099.28;;;22.95
74750;BMP280;63269;53.330;-6.288;2023-06-10T05:55:57;101100.50;;;22.94
74750;BMP280;63269;53.330;-6.288;2023-06-10T05:58:23;101104.63;;;22.95
74750;BMP280;63269;53.330;-6.288;2023-06-10T06:00:49;101103.91;;;22.94
74750;BMP280;63269;53.330;-6.288;2023-06-10T06:03:15;101106.56;;;22.94
74750;BMP280;63269;53.330;-6.288;2023-06-10T06:05:40;101110.00;;;22.95
74750;BMP280;63269;53.330;-6.288;2023-06-10T06:08:09;101110.75;;;22.95
74750;BMP280;63269;53.330;-6.288;2023-06-10T06:10:34;101110.75;;;22.95
74750;BMP280;63269;53.330;-6.288;2023-06-10T06:13:00;101109.56;;;22.96
74750;BMP280;63269;53.330;-6.288;2023-06-10T06:15:26;101106.16;;;22.96
74750;BMP280;63269;53.330;-6.288;2023-06-10T06:17:52;101114.91;;;22.96
74750;BMP280;63269;53.330;-6.288;2023-06-10T06:20:21;101110.75;;;22.95
74750;BMP280;63269;53.330;-6.288;2023-06-10T06:22:47;101109.56;;;22.96
74750;BMP280;63269;53.330;-6.288;2023-06-10T06:25:12;101112.22;;;22.96
74750;BMP280;63269;53.330;-6.288;2023-06-10T06:27:38;101113.72;;;22.97
74750;BMP280;63269;53.330;-6.288;2023-06-10T06:30:04;101108.34;;;22.97
74750;BMP280;63269;53.330;-6.288;2023-06-10T06:32:30;101106.44;;;22.98
74750;BMP280;63269;53.330;-6.288;2023-06-10T06:34:55;101111.03;;;22.97
74750;BMP280;63269;53.330;-6.288;2023-06-10T06:37:22;101102.31;;;22.97
74750;BMP280;63269;53.330;-6.288;2023-06-10T06:39:50;101113.28;;;22.99
74750;BMP280;63269;53.330;-6.288;2023-06-10T06:42:15;101106.44;;;22.98
74750;BMP280;63269;53.330;-6.288;2023-06-10T06:44:41;101114.44;;;22.98
74750;BMP280;63269;53.330;-6.288;2023-06-10T06:47:07;101111.78;;;22.98
74750;BMP280;63269;53.330;-6.288;2023-06-10T06:49:32;101117.91;;;22.98
74750;BMP280;63269;53.330;-6.288;2023-06-10T06:51:58;101120.56;;;22.98
74750;BMP280;63269;53.330;-6.288;2023-06-10T06:54:23;101120.56;;;22.98
74750;BMP280;63269;53.330;-6.288;2023-06-10T06:56:50;101115.97;;;22.99
74750;BMP280;63269;53.330;-6.288;2023-06-10T06:59:15;101120.56;;;22.98
74750;BMP280;63269;53.330;-6.288;2023-06-10T07:01:42;101123.56;;;23.00
74750;BMP280;63269;53.330;-6.288;2023-06-10T07:04:08;101122.81;;;23.00
74750;BMP280;63269;53.330;-6.288;2023-06-10T07:06:33;101118.22;;;23.00
74750;BMP280;63269;53.330;-6.288;2023-06-10T07:08:58;101117.47;;;23.00
74750;BMP280;63269;53.330;-6.288;2023-06-10T07:11:24;101123.56;;;23.00
74750;BMP280;63269;53.330;-6.288;2023-06-10T07:13:50;101131.59;;;23.00
74750;BMP280;63269;53.330;-6.288;2023-06-10T07:16:15;101128.91;;;23.00
74750;BMP280;63269;53.330;-6.288;2023-06-10T07:18:41;101132.31;;;23.01
74750;BMP280;63269;53.330;-6.288;2023-06-10T07:21:06;101128.44;;;23.02
74750;BMP280;63269;53.330;-6.288;2023-06-10T07:23:32;101132.31;;;23.01
74750;BMP280;63269;53.330;-6.288;2023-06-10T07:25:57;101137.25;;;23.02
74750;BMP280;63269;53.330;-6.288;2023-06-10T07:28:22;101133.06;;;23.01
74750;BMP280;63269;53.330;-6.288;2023-06-10T07:30:48;101134.13;;;23.04
74750;BMP280;63269;53.330;-6.288;2023-06-10T07:33:13;101146.00;;;23.03
74750;BMP280;63269;53.330;-6.288;2023-06-10T07:35:39;101134.13;;;23.04
74750;BMP280;63269;53.330;-6.288;2023-06-10T07:38:04;101142.91;;;23.04
74750;BMP280;63269;53.330;-6.288;2023-06-10T07:40:29;101138.28;;;23.05
74750;BMP280;63269;53.330;-6.288;2023-06-10T07:42:55;101144.38;;;23.05
74750;BMP280;63269;53.330;-6.288;2023-06-10T07:45:20;101140.97;;;23.05
74750;BMP280;63269;53.330;-6.288;2023-06-10T07:47:46;101143.22;;;23.06
74750;BMP280;63269;53.330;-6.288;2023-06-10T07:50:11;101142.00;;;23.08
74750;BMP280;63269;53.330;-6.288;2023-06-10T07:52:37;101149.31;;;23.07
74750;BMP280;63269;53.330;-6.288;2023-06-10T07:55:02;101142.78;;;23.08
74750;BMP280;63269;53.330;-6.288;2023-06-10T07:57:28;101143.50;;;23.09
74750;BMP280;63269;53.330;-6.288;2023-06-10T07:59:53;101146.16;;;23.09
74750;BMP280;63269;53.330;-6.288;2023-06-10T08:02:20;101142.78;;;23.08
74750;BMP280;63269;53.330;-6.288;2023-06-10T08:04:45;101144.22;;;23.09
74750;BMP280;63269;53.330;-6.288;2023-06-10T08:07:11;101150.34;;;23.10
74750;BMP280;63269;53.330;-6.288;2023-06-10T08:09:36;101146.91;;;23.09
74750;BMP280;63269;53.330;-6.288;2023-06-10T08:12:01;101148.41;;;23.10
74750;BMP280;63269;53.330;-6.288;2023-06-10T08:14:27;101145.00;;;23.10
74750;BMP280;63269;53.330;-6.288;2023-06-10T08:16:53;101144.22;;;23.09
74750;BMP280;63269;53.330;-6.288;2023-06-10T08:19:18;101143.06;;;23.10
74750;BMP280;63269;53.330;-6.288;2023-06-10T08:21:43;101148.41;;;23.10
74750;BMP280;63269;53.330;-6.288;2023-06-10T08:24:09;101145.72;;;23.10
74750;BMP280;63269;53.330;-6.288;2023-06-10T08:26:35;101147.25;;;23.11
74750;BMP280;63269;53.330;-6.288;2023-06-10T08:29:00;101150.66;;;23.12
74750;BMP280;63269;53.330;-6.288;2023-06-10T08:31:26;101149.91;;;23.11
74750;BMP280;63269;53.330;-6.288;2023-06-10T08:33:51;101151.41;;;23.12
74750;BMP280;63269;53.330;-6.288;2023-06-10T08:36:17;101151.41;;;23.12
74750;BMP280;63269;53.330;-6.288;2023-06-10T08:38:42;101155.56;;;23.13
74750;BMP280;63269;53.330;-6.288;2023-06-10T08:41:09;101152.88;;;23.13
74750;BMP280;63269;53.330;-6.288;2023-06-10T08:43:53;101159.44;;;23.12
74750;BMP280;63269;53.330;-6.288;2023-06-10T08:46:21;101155.56;;;23.13
74750;BMP280;63269;53.330;-6.288;2023-06-10T08:48:48;101150.19;;;23.13
74750;BMP280;63269;53.330;-6.288;2023-06-10T08:51:19;101158.22;;;23.13
74750;BMP280;63269;53.330;-6.288;2023-06-10T08:53:52;101154.38;;;23.14
74750;BMP280;63269;53.330;-6.288;2023-06-10T08:56:19;101152.88;;;23.13
74750;BMP280;63269;53.330;-6.288;2023-06-10T08:58:45;101153.66;;;23.14
74750;BMP280;63269;53.330;-6.288;2023-06-10T09:01:12;101157.78;;;23.15
74750;BMP280;63269;53.330;-6.288;2023-06-10T09:03:38;101157.78;;;23.15
74750;BMP280;63269;53.330;-6.288;2023-06-10T09:06:04;101157.06;;;23.14
74750;BMP280;63269;53.330;-6.288;2023-06-10T09:08:31;101157.78;;;23.15
74750;BMP280;63269;53.330;-6.288;2023-06-10T09:10:57;101153.94;;;23.16
74750;BMP280;63269;53.330;-6.288;2023-06-10T09:13:22;101159.31;;;23.16
74750;BMP280;63269;53.330;-6.288;2023-06-10T09:15:48;101158.09;;;23.17
74750;BMP280;63269;53.330;-6.288;2023-06-10T09:18:14;101158.84;;;23.17
74750;BMP280;63269;53.330;-6.288;2023-06-10T09:20:42;101144.28;;;23.18
74750;BMP280;63269;53.330;-6.288;2023-06-10T09:23:08;101145.47;;;23.17
74750;BMP280;63269;53.330;-6.288;2023-06-10T09:25:38;101138.94;;;23.18
74750;BMP280;63269;53.330;-6.288;2023-06-10T09:28:04;101148.91;;;23.18
74750;BMP280;63269;53.330;-6.288;2023-06-10T09:30:32;101155.00;;;23.18
74750;BMP280;63269;53.330;-6.288;2023-06-10T09:33:00;101161.09;;;23.19
74750;BMP280;63269;53.330;-6.288;2023-06-10T09:35:27;101165.97;;;23.20
74750;BMP280;63269;53.330;-6.288;2023-06-10T09:37:58;101159.19;;;23.19
74750;BMP280;63269;53.330;-6.288;2023-06-10T09:40:23;101158.41;;;23.19
74750;BMP280;63269;53.330;-6.288;2023-06-10T09:42:59;101158.72;;;23.21
74750;BMP280;63269;53.330;-6.288;2023-06-10T09:45:31;101154.53;;;23.20
74750;BMP280;63269;53.330;-6.288;2023-06-10T09:47:57;101160.63;;;23.20
74750;BMP280;63269;53.330;-6.288;2023-06-10T09:50:22;101164.81;;;23.21
74750;BMP280;63269;53.330;-6.288;2023-06-10T09:52:50;101158.28;;;23.22
74750;BMP280;63269;53.330;-6.288;2023-06-10T09:55:16;101169.00;;;23.22
74750;BMP280;63269;53.330;-6.288;2023-06-10T09:57:41;101154.09;;;23.21
74750;BMP280;63269;53.330;-6.288;2023-06-10T10:00:10;101156.34;;;23.23
74750;BMP280;63269;53.330;-6.288;2023-06-10T10:02:54;101154.44;;;23.23
74750;BMP280;63269;53.330;-6.288;2023-06-10T10:05:21;101154.44;;;23.23
74750;BMP280;63269;53.330;-6.288;2023-06-10T10:07:47;101146.41;;;23.23
74750;BMP280;63269;53.330;-6.288;2023-06-10T10:10:14;101142.22;;;23.22
74750;BMP280;63269;53.330;-6.288;2023-06-10T10:12:41;101143.75;;;23.23
74750;BMP280;63269;53.330;-6.288;2023-06-10T10:15:11;101145.97;;;23.25
74750;BMP280;63269;53.330;-6.288;2023-06-10T10:17:37;101138.94;;;23.18
74750;BMP280;63269;53.330;-6.288;2023-06-10T10:20:06;101134.22;;;23.22
74750;BMP280;63269;53.330;-6.288;2023-06-10T10:22:38;101124.22;;;23.23
74750;BMP280;63269;53.330;-6.288;2023-06-10T10:25:23;101117.69;;;23.24
74750;BMP280;63269;53.330;-6.288;2023-06-10T10:28:08;101118.16;;;23.22
74750;BMP280;63269;53.330;-6.288;2023-06-10T10:30:51;101113.97;;;23.21
74750;BMP280;63269;53.330;-6.288;2023-06-10T10:33:31;101120.06;;;23.22
74750;BMP280;63269;53.330;-6.288;2023-06-10T10:36:00;101120.06;;;23.22
74750;BMP280;63269;53.330;-6.288;2023-06-10T10:38:26;101114.31;;;23.23
74750;BMP280;63269;53.330;-6.288;2023-06-10T10:40:53;101108.94;;;23.23
74750;BMP280;63269;53.330;-6.288;2023-06-10T10:43:21;101111.16;;;23.25
74750;BMP280;63269;53.330;-6.288;2023-06-10T10:46:00;101114.84;;;23.27
74750;BMP280;63269;53.330;-6.288;2023-06-10T10:48:27;101116.81;;;23.27
74750;BMP280;63269;53.330;-6.288;2023-06-10T10:50:58;101118.59;;;23.30
74750;BMP280;63269;53.330;-6.288;2023-06-10T10:53:24;101109.41;;;23.31
74750;BMP280;63269;53.330;-6.288;2023-06-10T10:56:14;101118.03;;;23.35
74750;BMP280;63269;53.330;-6.288;2023-06-10T10:58:40;101124.72;;;23.40
74750;BMP280;63269;53.330;-6.288;2023-06-10T11:01:13;101126.38;;;23.46
74750;BMP280;63269;53.330;-6.288;2023-06-10T11:03:44;101121.31;;;23.48
74750;BMP280;63269;53.330;-6.288;2023-06-10T11:06:14;101125.78;;;23.52
74750;BMP280;63269;53.330;-6.288;2023-06-10T11:11:25;101123.59;;;23.59
74750;BMP280;63269;53.330;-6.288;2023-06-10T11:14:06;101126.09;;;23.63
74750;BMP280;63269;53.330;-6.288;2023-06-10T11:16:40;101112.88;;;23.68
74750;BMP280;63269;53.330;-6.288;2023-06-10T11:19:06;101114.22;;;23.73
74750;BMP280;63269;53.330;-6.288;2023-06-10T11:21:32;101116.63;;;23.80
74750;BMP280;63269;53.330;-6.288;2023-06-10T11:24:12;101113.50;;;23.91
74750;BMP280;63269;53.330;-6.288;2023-06-10T11:26:43;101110.53;;;23.98
74750;BMP280;63269;53.330;-6.288;2023-06-10T11:29:09;101112.34;;;24.01
74750;BMP280;63269;53.330;-6.288;2023-06-10T11:31:50;101106.50;;;24.03
74750;BMP280;63269;53.330;-6.288;2023-06-10T11:34:22;101109.47;;;24.05
74750;BMP280;63269;53.330;-6.288;2023-06-10T11:36:52;101108.28;;;24.06
74750;BMP280;63269;53.330;-6.288;2023-06-10T11:39:20;101110.66;;;24.04
74750;BMP280;63269;53.330;-6.288;2023-06-10T11:41:46;101109.91;;;24.03
74750;BMP280;63269;53.330;-6.288;2023-06-10T11:44:12;101112.59;;;24.03
74750;BMP280;63269;53.330;-6.288;2023-06-10T11:46:38;101104.28;;;24.01
74750;BMP280;63269;53.330;-6.288;2023-06-10T11:49:05;101109.19;;;24.03
74750;BMP280;63269;53.330;-6.288;2023-06-10T11:51:35;101103.81;;;24.03
74750;BMP280;63269;53.330;-6.288;2023-06-10T11:54:02;101112.75;;;24.00
74750;BMP280;63269;53.330;-6.288;2023-06-10T11:56:28;101113.06;;;24.02
74750;BMP280;63269;53.330;-6.288;2023-06-10T11:58:56;101108.16;;;24.00
74750;BMP280;63269;53.330;-6.288;2023-06-10T12:01:26;101106.19;;;24.01
74750;BMP280;63269;53.330;-6.288;2023-06-10T12:06:42;101113.94;;;23.99
74750;BMP280;63269;53.330;-6.288;2023-06-10T12:14:53;101123.63;;;23.96
74750;BMP280;63269;53.330;-6.288;2023-06-10T12:19:59;101126.03;;;23.94
74750;BMP280;63269;53.330;-6.288;2023-06-10T12:22:25;101118.00;;;23.94
74750;BMP280;63269;53.330;-6.288;2023-06-10T12:25:02;101118.00;;;23.94
74750;BMP280;63269;53.330;-6.288;2023-06-10T12:27:31;101123.34;;;23.94
74750;BMP280;63269;53.330;-6.288;2023-06-10T12:29:58;101115.31;;;23.94
74750;BMP280;63269;53.330;-6.288;2023-06-10T12:32:43;101114.53;;;23.94
74750;BMP280;63269;53.330;-6.288;2023-06-10T12:35:10;101113.81;;;23.93
74750;BMP280;63269;53.330;-6.288;2023-06-10T12:37:37;101109.63;;;23.92
74750;BMP280;63269;53.330;-6.288;2023-06-10T12:40:04;101120.34;;;23.92
74750;BMP280;63269;53.330;-6.288;2023-06-10T12:42:31;101120.34;;;23.92
74750;BMP280;63269;53.330;-6.288;2023-06-10T12:44:59;101115.44;;;23.90
74750;BMP280;63269;53.330;-6.288;2023-06-10T12:47:32;101104.44;;;23.88
74750;BMP280;63269;53.330;-6.288;2023-06-10T12:50:01;101104.44;;;23.88
74750;BMP280;63269;53.330;-6.288;2023-06-10T12:52:26;101117.81;;;23.88
74750;BMP280;63269;53.330;-6.288;2023-06-10T12:54:53;101120.06;;;23.90
74750;BMP280;63269;53.330;-6.288;2023-06-10T12:57:19;101120.06;;;23.90
74750;BMP280;63269;53.330;-6.288;2023-06-10T12:59:44;101119.00;;;23.87
74750;BMP280;63269;53.330;-6.288;2023-06-10T13:02:15;101123.63;;;23.87
74750;BMP280;63269;53.330;-6.288;2023-06-10T13:04:43;101122.88;;;23.86
74750;BMP280;63269;53.330;-6.288;2023-06-10T13:07:09;101122.88;;;23.86
74750;BMP280;63269;53.330;-6.288;2023-06-10T13:09:36;101119.13;;;23.84
74750;BMP280;63269;53.330;-6.288;2023-06-10T13:12:01;101116.91;;;23.82
74750;BMP280;63269;53.330;-6.288;2023-06-10T13:14:27;101116.91;;;23.82
74750;BMP280;63269;53.330;-6.288;2023-06-10T13:16:53;101117.34;;;23.81
74750;BMP280;63269;53.330;-6.288;2023-06-10T13:19:20;101109.03;;;23.79
74750;BMP280;63269;53.330;-6.288;2023-06-10T13:21:47;101109.78;;;23.79
74750;BMP280;63269;53.330;-6.288;2023-06-10T13:24:12;101109.78;;;23.79
74750;BMP280;63269;53.330;-6.288;2023-06-10T13:26:38;101112.91;;;23.78
74750;BMP280;63269;53.330;-6.288;2023-06-10T13:29:03;101114.84;;;23.77
74750;BMP280;63269;53.330;-6.288;2023-06-10T13:31:29;101111.38;;;23.77
74750;BMP280;63269;53.330;-6.288;2023-06-10T13:33:55;101111.38;;;23.77
74750;BMP280;63269;53.330;-6.288;2023-06-10T13:36:20;101113.38;;;23.76
74750;BMP280;63269;53.330;-6.288;2023-06-10T13:38:46;101122.09;;;23.77
74750;BMP280;63269;53.330;-6.288;2023-06-10T13:41:13;101115.31;;;23.76
74750;BMP280;63269;53.330;-6.288;2023-06-10T13:43:38;101123.34;;;23.76
74750;BMP280;63269;53.330;-6.288;2023-06-10T13:46:04;101123.34;;;23.76
74750;BMP280;63269;53.330;-6.288;2023-06-10T13:48:30;101113.03;;;23.74
74750;BMP280;63269;53.330;-6.288;2023-06-10T13:50:56;101113.03;;;23.74
74750;BMP280;63269;53.330;-6.288;2023-06-10T13:53:22;101116.16;;;23.73
74750;BMP280;63269;53.330;-6.288;2023-06-10T13:55:48;101104.72;;;23.72
74750;BMP280;63269;53.330;-6.288;2023-06-10T13:58:13;101110.06;;;23.72
74750;BMP280;63269;53.330;-6.288;2023-06-10T14:00:39;101105.91;;;23.71
74750;BMP280;63269;53.330;-6.288;2023-06-10T14:03:04;101103.22;;;23.71
74750;BMP280;63269;53.330;-6.288;2023-06-10T14:05:30;101112.00;;;23.72
74750;BMP280;63269;53.330;-6.288;2023-06-10T14:07:55;101116.16;;;23.73
74750;BMP280;63269;53.330;-6.288;2023-06-10T14:10:21;101112.44;;;23.70